createdAt,value
2024-01-01T00:01:46.684Z,7.47
2024-01-01T00:04:13.290Z,7.93
2024-01-01T00:06:39.827Z,7.93
2024-01-01T00:09:06.298Z,6.88
2024-01-01T00:11:32.793Z,6.15
2024-01-01T00:13:59.400Z,6.75
2024-01-01T00:16:25.958Z,7.53
2024-01-01T00:18:52.964Z,7.72
2024-01-01T00:21:19.711Z,7.47
2024-01-01T00:23:46.120Z,7.20
2024-01-01T00:26:12.607Z,8.57
2024-01-01T00:28:39.332Z,7.47
2024-01-01T00:31:05.785Z,7.30
2024-01-01T00:33:32.542Z,7.13
2024-01-01T00:35:59.062Z,7.55
2024-01-01T00:38:25.441Z,7.95
2024-01-01T00:40:51.986Z,8.43
2024-01-01T00:43:18.395Z,6.43
2024-01-01T00:45:49.542Z,7.05
2024-01-01T00:48:17.313Z,7.88
2024-01-01T00:50:45.755Z,7.03
2024-01-01T00:53:12.489Z,6.10
2024-01-01T00:55:39.043Z,6.40
2024-01-01T00:58:07.719Z,7.60
2024-01-01T01:00:34.996Z,5.47
2024-01-01T01:03:01.519Z,6.38
2024-01-01T01:05:28.122Z,5.38
2024-01-01T01:07:54.614Z,5.43
2024-01-01T01:10:21.142Z,5.70
2024-01-01T01:12:47.601Z,5.68
2024-01-01T01:15:14.039Z,4.57
2024-01-01T01:17:40.538Z,5.30
2024-01-01T01:20:08.181Z,4.57
2024-01-01T01:22:34.956Z,4.28
2024-01-01T01:25:01.500Z,4.82
2024-01-01T01:27:27.963Z,4.60
2024-01-01T01:29:54.438Z,4.05
2024-01-01T01:32:20.918Z,3.90
2024-01-01T01:34:47.452Z,4.07
2024-01-01T01:37:14.186Z,4.05
2024-01-01T01:39:40.716Z,3.17
2024-01-01T01:42:08.249Z,3.60
2024-01-01T01:44:34.824Z,3.47
2024-01-01T01:47:02.321Z,3.30
2024-01-01T01:49:28.758Z,3.28
2024-01-01T01:51:55.521Z,3.65
2024-01-01T01:54:24.110Z,3.53
2024-01-01T01:56:51.126Z,3.00
2024-01-01T01:59:17.653Z,3.33
2024-01-01T02:01:44.558Z,2.78
2024-01-01T02:04:11.062Z,2.10
2024-01-01T02:06:37.528Z,3.38
2024-01-01T02:09:04.000Z,3.10
2024-01-01T02:11:30.504Z,2.67
2024-01-01T02:14:13.515Z,2.70
2024-01-01T02:16:40.159Z,2.35
2024-01-01T02:19:17.421Z,2.13
2024-01-01T02:21:43.859Z,3.10
2024-01-01T02:24:10.444Z,1.85
2024-01-01T02:26:36.839Z,2.05
2024-01-01T02:29:03.384Z,2.85
2024-01-01T02:31:30.520Z,2.40
2024-01-01T02:33:57.017Z,2.03
2024-01-01T02:36:24.778Z,1.65
2024-01-01T02:38:51.188Z,1.67
2024-01-01T02:41:17.667Z,1.98
2024-01-01T02:43:44.474Z,2.78
2024-01-01T02:46:10.912Z,2.40
2024-01-01T02:48:37.838Z,1.95
2024-01-01T02:51:04.583Z,1.85
2024-01-01T02:53:33.077Z,2.10
2024-01-01T02:56:00.244Z,1.73
2024-01-01T02:58:26.739Z,2.15
2024-01-01T03:00:53.259Z,1.65
2024-01-01T03:03:20.641Z,1.70
2024-01-01T03:05:47.294Z,2.00
2024-01-01T03:08:13.950Z,2.03
2024-01-01T03:10:40.410Z,2.22
2024-01-01T03:13:06.877Z,2.17
2024-01-01T03:15:33.307Z,1.58
2024-01-01T03:17:59.852Z,1.55
2024-01-01T03:20:31.855Z,1.85
2024-01-01T03:22:58.622Z,1.70
2024-01-01T03:25:25.277Z,2.15
2024-01-01T03:27:51.724Z,2.30
2024-01-01T03:30:19.426Z,2.08
2024-01-01T03:32:47.370Z,1.58
2024-01-01T03:35:14.115Z,1.20
2024-01-01T03:37:40.657Z,1.50
2024-01-01T03:40:07.714Z,1.65
2024-01-01T03:42:34.259Z,1.33
2024-01-01T03:45:01.051Z,1.83
2024-01-01T03:47:28.403Z,2.25
2024-01-01T03:49:54.933Z,2.17
2024-01-01T03:52:21.643Z,1.88
2024-01-01T03:54:48.063Z,2.00
2024-01-01T03:57:14.522Z,1.77
2024-01-01T03:59:40.999Z,1.73
2024-01-01T04:02:07.601Z,1.55
2024-01-01T04:04:34.253Z,1.90
2024-01-01T04:07:00.698Z,1.67
2024-01-01T04:09:27.104Z,1.50
2024-01-01T04:11:53.515Z,2.20
2024-01-01T04:14:20.019Z,2.15
2024-01-01T04:16:46.556Z,2.03
2024-01-01T04:19:13.162Z,1.80
2024-01-01T04:21:40.829Z,1.45
2024-01-01T04:24:07.813Z,1.85
2024-01-01T04:26:34.206Z,1.63
2024-01-01T04:29:00.723Z,1.95
2024-01-01T04:31:27.097Z,1.50
2024-01-01T04:33:53.588Z,2.25
2024-01-01T04:36:20.133Z,1.25
2024-01-01T04:38:46.526Z,1.50
2024-01-01T04:41:13.103Z,1.95
2024-01-01T04:43:42.579Z,2.15
2024-01-01T04:46:09.486Z,1.83
2024-01-01T04:48:36.085Z,1.60
2024-01-01T04:51:02.724Z,1.77
2024-01-01T04:53:29.100Z,2.00
2024-01-01T04:55:55.593Z,1.92
2024-01-01T04:58:22.113Z,1.50
2024-01-01T05:00:48.520Z,1.40
2024-01-01T05:03:15.472Z,1.15
2024-01-01T05:05:42.033Z,1.60
2024-01-01T05:08:08.723Z,1.88
2024-01-01T05:10:35.388Z,1.73
2024-01-01T05:13:01.823Z,1.80
2024-01-01T05:15:28.190Z,1.40
2024-01-01T05:17:54.653Z,1.42
2024-01-01T05:20:21.350Z,1.13
2024-01-01T05:22:47.822Z,1.60
2024-01-01T05:25:14.346Z,1.98
2024-01-01T05:27:40.764Z,1.80
2024-01-01T05:30:07.580Z,1.33
2024-01-01T05:32:34.493Z,1.15
2024-01-01T05:35:01.305Z,1.25
2024-01-01T05:37:27.750Z,1.52
2024-01-01T05:39:54.369Z,1.45
2024-01-01T05:42:20.770Z,1.98
2024-01-01T05:44:47.341Z,1.17
2024-01-01T05:47:13.768Z,1.95
2024-01-01T05:49:40.869Z,1.65
2024-01-01T05:52:07.395Z,1.33
2024-01-01T05:54:33.834Z,1.23
2024-01-01T05:57:00.285Z,1.60
2024-01-01T05:59:26.804Z,2.00
2024-01-01T06:01:53.247Z,2.05
2024-01-01T06:04:19.670Z,2.05
2024-01-01T06:06:46.111Z,1.42
2024-01-01T06:09:12.519Z,1.73
2024-01-01T06:11:39.004Z,1.27
2024-01-01T06:14:05.422Z,1.48
2024-01-01T06:16:32.131Z,1.30
2024-01-01T06:18:58.847Z,1.95
2024-01-01T06:21:25.486Z,1.55
2024-01-01T06:23:51.882Z,1.80
2024-01-01T06:26:18.697Z,1.77
2024-01-01T06:28:45.129Z,1.38
2024-01-01T06:31:11.629Z,1.40
2024-01-01T06:33:38.238Z,1.98
2024-01-01T06:36:04.856Z,1.27
2024-01-01T06:38:31.268Z,1.35
2024-01-01T06:40:57.832Z,1.10
2024-01-01T06:43:24.315Z,1.02
2024-01-01T06:45:50.714Z,1.10
2024-01-01T06:48:17.302Z,1.30
2024-01-01T06:50:43.898Z,1.50
2024-01-01T06:53:10.445Z,1.25
2024-01-01T06:55:36.896Z,1.42
2024-01-01T06:58:03.718Z,1.38
2024-01-01T07:00:32.761Z,1.58
2024-01-01T07:03:00.298Z,1.88
2024-01-01T07:05:29.671Z,2.42
2024-01-01T07:07:56.773Z,1.40
2024-01-01T07:10:23.330Z,1.45
2024-01-01T07:12:49.739Z,1.25
2024-01-01T07:15:16.141Z,1.48
2024-01-01T07:17:42.668Z,2.15
2024-01-01T07:20:11.599Z,1.23
2024-01-01T07:22:38.197Z,1.10
2024-01-01T07:25:04.856Z,1.30
2024-01-01T07:27:31.333Z,2.03
2024-01-01T07:29:58.019Z,1.30
2024-01-01T07:32:24.555Z,2.15
2024-01-01T07:34:51.074Z,1.75
2024-01-01T07:37:17.553Z,1.95
2024-01-01T07:39:44.009Z,2.13
2024-01-01T07:42:10.581Z,1.60
2024-01-01T07:44:36.958Z,1.27
2024-01-01T07:47:03.390Z,1.52
2024-01-01T07:49:29.859Z,1.10
2024-01-01T07:51:56.506Z,1.60
2024-01-01T07:54:23.419Z,1.05
2024-01-01T07:56:50.936Z,1.50
2024-01-01T07:59:17.437Z,1.55
2024-01-01T08:01:44.274Z,1.40
2024-01-01T08:04:10.696Z,1.15
2024-01-01T08:06:37.573Z,1.27
2024-01-01T08:09:04.142Z,1.63
2024-01-01T08:11:30.591Z,0.90
2024-01-01T08:13:57.232Z,1.40
2024-01-01T08:16:23.748Z,1.75
2024-01-01T08:18:50.287Z,1.38
2024-01-01T08:21:16.823Z,1.73
2024-01-01T08:23:43.852Z,1.73
2024-01-01T08:26:10.429Z,1.52
2024-01-01T08:28:36.923Z,1.67
2024-01-01T08:31:03.759Z,1.73
2024-01-01T08:33:30.326Z,1.20
2024-01-01T08:35:57.335Z,1.35
2024-01-01T08:38:25.085Z,1.27
2024-01-01T08:40:51.881Z,1.08
2024-01-01T08:43:18.392Z,1.08
2024-01-01T08:45:45.012Z,1.50
2024-01-01T08:48:11.987Z,1.00
2024-01-01T08:50:38.633Z,1.15
2024-01-01T08:53:05.093Z,1.13
2024-01-01T08:55:31.490Z,1.45
2024-01-01T08:57:58.746Z,0.95
2024-01-01T09:00:25.206Z,1.92
2024-01-01T09:02:52.172Z,1.50
2024-01-01T09:05:18.833Z,1.25
2024-01-01T09:07:45.642Z,0.98
2024-01-01T09:10:12.082Z,1.52
2024-01-01T09:12:38.592Z,1.08
2024-01-01T09:15:05.295Z,1.70
2024-01-01T09:17:31.842Z,1.73
2024-01-01T09:19:58.352Z,0.88
2024-01-01T09:22:25.247Z,1.55
2024-01-01T09:24:51.704Z,1.42
2024-01-01T09:27:18.128Z,1.27
2024-01-01T09:29:44.509Z,1.00
2024-01-01T09:32:10.927Z,1.20
2024-01-01T09:34:37.441Z,1.02
2024-01-01T09:37:04.673Z,1.30
2024-01-01T09:39:31.308Z,1.00
2024-01-01T09:41:57.996Z,1.05
2024-01-01T09:44:24.914Z,1.40
2024-01-01T09:46:51.427Z,1.10
2024-01-01T09:49:18.090Z,1.55
2024-01-01T09:51:44.608Z,0.95
2024-01-01T09:54:11.131Z,1.13
2024-01-01T09:56:38.702Z,1.15
2024-01-01T09:59:05.130Z,0.82
2024-01-01T10:01:32.797Z,1.05
2024-01-01T10:04:03.648Z,0.70
2024-01-01T10:06:35.371Z,1.30
2024-01-01T10:09:08.448Z,1.10
2024-01-01T10:11:34.871Z,1.02
2024-01-01T10:14:06.086Z,0.80
2024-01-01T10:16:32.585Z,0.70
2024-01-01T10:19:01.004Z,1.00
2024-01-01T10:21:29.616Z,0.80
2024-01-01T10:24:02.269Z,0.90
2024-01-01T10:26:33.989Z,1.30
2024-01-01T10:29:00.545Z,0.80
2024-01-01T10:31:27.346Z,1.55
2024-01-01T10:33:54.089Z,1.17
2024-01-01T10:36:21.256Z,1.25
2024-01-01T10:38:49.704Z,0.90
2024-01-01T10:41:18.390Z,0.73
2024-01-01T10:43:46.515Z,0.90
2024-01-01T10:46:13.561Z,1.08
2024-01-01T10:48:41.507Z,1.00
2024-01-01T10:51:46.383Z,1.35
2024-01-01T10:54:22.546Z,0.60
2024-01-01T10:57:06.142Z,0.90
2024-01-01T10:59:40.117Z,1.48
2024-01-01T11:02:06.991Z,0.70
2024-01-01T11:04:33.361Z,0.98
2024-01-01T11:07:03.354Z,1.13
2024-01-01T11:09:30.321Z,0.95
2024-01-01T11:11:56.964Z,0.90
2024-01-01T11:14:30.736Z,1.15
2024-01-01T11:17:02.501Z,1.00
2024-01-01T11:19:39.585Z,1.20
2024-01-01T11:22:21.682Z,1.05
2024-01-01T11:24:50.182Z,1.77
2024-01-01T11:27:23.481Z,1.20
2024-01-01T11:29:50.018Z,1.63
2024-01-01T11:32:18.827Z,1.40
2024-01-01T11:35:00.469Z,2.25
2024-01-01T11:37:27.024Z,0.98
2024-01-01T11:40:00.641Z,1.60
2024-01-01T11:42:27.935Z,1.00
2024-01-01T11:45:07.439Z,1.13
2024-01-01T11:47:34.442Z,0.80
2024-01-01T11:50:04.106Z,1.35
2024-01-01T11:52:31.029Z,1.58
2024-01-01T11:54:57.696Z,1.27
2024-01-01T11:57:24.219Z,1.15
2024-01-01T11:59:51.008Z,1.65
2024-01-01T12:02:19.037Z,1.08
2024-01-01T12:04:46.551Z,1.60
2024-01-01T12:07:26.166Z,1.75
2024-01-01T12:10:07.280Z,1.02
2024-01-01T12:12:34.632Z,1.10
2024-01-01T12:15:27.545Z,1.00
2024-01-01T12:17:54.228Z,0.88
2024-01-01T12:20:21.472Z,1.45
2024-01-01T12:22:50.160Z,1.10
2024-01-01T12:25:18.017Z,1.35
2024-01-01T12:27:45.079Z,1.23
2024-01-01T12:30:25.938Z,1.20
2024-01-01T12:32:52.789Z,1.58
2024-01-01T12:35:19.841Z,1.50
2024-01-01T12:37:48.888Z,1.50
2024-01-01T12:40:15.900Z,1.08
2024-01-01T12:42:42.432Z,1.35
2024-01-01T12:45:09.086Z,1.13
2024-01-01T12:47:35.554Z,0.98
2024-01-01T12:50:02.039Z,1.88
2024-01-01T12:52:28.489Z,1.20
2024-01-01T12:54:54.942Z,1.35
2024-01-01T12:57:21.424Z,1.83
2024-01-01T12:59:47.811Z,2.40
2024-01-01T13:02:14.286Z,1.70
2024-01-01T13:04:40.746Z,1.60
2024-01-01T13:07:07.565Z,2.47
2024-01-01T13:09:34.012Z,2.13
2024-01-01T13:12:00.396Z,1.77
2024-01-01T13:14:27.181Z,1.70
2024-01-01T13:16:53.754Z,1.30
2024-01-01T13:19:20.258Z,1.60
2024-01-01T13:21:46.705Z,2.00
2024-01-01T13:24:13.203Z,1.15
2024-01-01T13:26:39.700Z,1.50
2024-01-01T13:29:06.337Z,1.60
2024-01-01T13:31:32.776Z,2.33
2024-01-01T13:33:59.267Z,2.20
2024-01-01T13:36:26.360Z,1.88
2024-01-01T13:38:52.796Z,1.20
2024-01-01T13:41:19.251Z,1.35
2024-01-01T13:43:46.449Z,2.08
2024-01-01T13:46:13.052Z,1.10
2024-01-01T13:48:39.996Z,2.47
2024-01-01T13:51:06.502Z,1.17
2024-01-01T13:53:33.497Z,1.30
2024-01-01T13:56:00.053Z,1.83
2024-01-01T13:58:26.933Z,1.38
2024-01-01T14:00:53.490Z,1.63
2024-01-01T14:03:20.172Z,1.15
2024-01-01T14:05:46.747Z,1.30
2024-01-01T14:08:13.360Z,1.60
2024-01-01T14:10:39.834Z,2.13
2024-01-01T14:13:06.846Z,1.50
2024-01-01T14:15:33.462Z,1.27
2024-01-01T14:18:00.170Z,1.65
2024-01-01T14:20:27.763Z,1.20
2024-01-01T14:22:54.441Z,2.03
2024-01-01T14:25:21.083Z,2.28
2024-01-01T14:27:47.530Z,1.17
2024-01-01T14:30:16.612Z,1.83
2024-01-01T14:32:43.835Z,1.23
2024-01-01T14:35:11.659Z,1.67
2024-01-01T14:37:38.136Z,1.60
2024-01-01T14:40:06.264Z,1.45
2024-01-01T14:42:32.637Z,2.30
2024-01-01T14:44:59.110Z,1.75
2024-01-01T14:47:25.607Z,1.80
2024-01-01T14:49:53.118Z,1.70
2024-01-01T14:52:19.628Z,2.00
2024-01-01T14:54:46.299Z,2.20
2024-01-01T14:57:12.802Z,1.80
2024-01-01T14:59:39.242Z,1.25
2024-01-01T15:02:05.648Z,1.40
2024-01-01T15:04:32.368Z,2.15
2024-01-01T15:06:59.051Z,1.70
2024-01-01T15:09:25.544Z,1.50
2024-01-01T15:11:52.252Z,1.88
2024-01-01T15:14:18.824Z,2.05
2024-01-01T15:16:45.388Z,1.90
2024-01-01T15:19:12.088Z,1.90
2024-01-01T15:21:40.012Z,1.63
2024-01-01T15:24:06.531Z,1.50
2024-01-01T15:26:33.061Z,1.80
2024-01-01T15:28:59.700Z,2.25
2024-01-01T15:31:26.236Z,2.17
2024-01-01T15:33:52.800Z,2.97
2024-01-01T15:36:19.256Z,1.67
2024-01-01T15:38:45.825Z,2.13
2024-01-01T15:41:12.420Z,1.92
2024-01-01T15:43:39.342Z,1.45
2024-01-01T15:46:06.641Z,1.50
2024-01-01T15:48:34.041Z,1.90
2024-01-01T15:51:09.062Z,2.53
2024-01-01T15:53:38.878Z,2.05
2024-01-01T15:56:05.788Z,2.42
2024-01-01T15:58:32.256Z,2.45
2024-01-01T16:00:58.732Z,2.42
2024-01-01T16:03:25.280Z,2.33
2024-01-01T16:05:51.965Z,2.15
2024-01-01T16:08:18.571Z,2.72
2024-01-01T16:10:45.209Z,1.88
2024-01-01T16:13:11.783Z,2.72
2024-01-01T16:15:45.155Z,1.80
2024-01-01T16:18:13.321Z,1.95
2024-01-01T16:20:40.005Z,2.13
2024-01-01T16:23:06.910Z,1.98
2024-01-01T16:25:33.669Z,2.13
2024-01-01T16:28:00.681Z,1.90
2024-01-01T16:30:27.320Z,1.75
2024-01-01T16:32:53.722Z,1.83
2024-01-01T16:35:20.267Z,1.70
2024-01-01T16:37:48.888Z,2.65
2024-01-01T16:40:16.025Z,2.22
2024-01-01T16:42:42.425Z,1.90
2024-01-01T16:45:08.992Z,3.08
2024-01-01T16:47:35.465Z,2.53
2024-01-01T16:50:02.895Z,2.55
2024-01-01T16:52:29.436Z,2.45
2024-01-01T16:54:55.839Z,1.95
2024-01-01T16:57:22.955Z,3.08
2024-01-01T16:59:49.491Z,2.70
2024-01-01T17:02:16.056Z,2.85
2024-01-01T17:04:45.519Z,2.92
2024-01-01T17:07:12.065Z,2.47
2024-01-01T17:09:38.617Z,3.88
2024-01-01T17:12:05.852Z,3.65
2024-01-01T17:14:32.317Z,3.47
2024-01-01T17:16:59.991Z,3.45
2024-01-01T17:19:26.471Z,3.40
2024-01-01T17:21:52.944Z,2.47
2024-01-01T17:24:19.389Z,2.70
2024-01-01T17:26:45.790Z,2.38
2024-01-01T17:29:12.240Z,3.67
2024-01-01T17:31:38.965Z,2.70
2024-01-01T17:34:06.048Z,3.03
2024-01-01T17:36:32.977Z,2.65
2024-01-01T17:38:59.824Z,2.90
2024-01-01T17:41:26.918Z,2.95
2024-01-01T17:43:53.566Z,4.00
2024-01-01T17:46:20.043Z,3.50
2024-01-01T17:48:46.562Z,4.18
2024-01-01T17:51:12.990Z,3.58
2024-01-01T17:53:39.792Z,3.35
2024-01-01T17:56:09.294Z,3.40
2024-01-01T17:58:38.123Z,3.40
2024-01-01T18:01:04.763Z,3.65
2024-01-01T18:03:31.308Z,3.30
2024-01-01T18:05:57.985Z,3.17
2024-01-01T18:08:24.507Z,3.33
2024-01-01T18:10:51.002Z,3.13
2024-01-01T18:13:17.529Z,3.42
2024-01-01T18:15:44.067Z,3.13
2024-01-01T18:18:11.990Z,3.20
2024-01-01T18:20:38.492Z,2.72
2024-01-01T18:23:05.155Z,4.00
2024-01-01T18:25:31.966Z,2.88
2024-01-01T18:27:58.517Z,3.90
2024-01-01T18:30:25.076Z,2.35
2024-01-01T18:32:51.656Z,2.72
2024-01-01T18:35:18.125Z,2.30
2024-01-01T18:37:46.306Z,2.88
2024-01-01T18:40:13.738Z,2.75
2024-01-01T18:42:41.402Z,2.63
2024-01-01T18:45:08.070Z,3.03
2024-01-01T18:47:34.661Z,3.60
2024-01-01T18:50:01.373Z,2.60
2024-01-01T18:52:28.015Z,2.55
2024-01-01T18:54:54.983Z,2.65
2024-01-01T18:57:21.424Z,3.30
2024-01-01T18:59:47.878Z,3.00
2024-01-01T19:02:14.682Z,2.45
2024-01-01T19:04:41.351Z,2.92
2024-01-01T19:07:07.843Z,3.35
2024-01-01T19:09:37.573Z,2.85
2024-01-01T19:12:05.835Z,2.97
2024-01-01T19:14:32.327Z,2.95
2024-01-01T19:16:59.273Z,3.17
2024-01-01T19:19:26.274Z,2.90
2024-01-01T19:21:52.752Z,2.75
2024-01-01T19:24:19.197Z,2.85
2024-01-01T19:26:47.281Z,2.95
2024-01-01T19:29:15.036Z,2.60
2024-01-01T19:31:41.946Z,2.60
2024-01-01T19:34:08.494Z,3.28
2024-01-01T19:36:35.039Z,3.40
2024-01-01T19:39:01.673Z,3.47
2024-01-01T19:41:28.146Z,3.28
2024-01-01T19:43:54.621Z,2.67
2024-01-01T19:46:21.598Z,3.10
2024-01-01T19:48:48.297Z,2.85
2024-01-01T19:51:15.518Z,3.10
2024-01-01T19:53:42.013Z,2.63
2024-01-01T19:56:08.548Z,2.70
2024-01-01T19:58:35.000Z,2.33
2024-01-01T20:01:01.917Z,2.67
2024-01-01T20:03:28.491Z,2.63
2024-01-01T20:05:54.920Z,2.95
2024-01-01T20:08:30.319Z,3.38
2024-01-01T20:11:03.562Z,2.55
2024-01-01T20:13:30.137Z,2.35
2024-01-01T20:15:56.573Z,2.55
2024-01-01T20:18:23.426Z,2.40
2024-01-01T20:20:49.945Z,2.55
2024-01-01T20:23:16.389Z,2.58
2024-01-01T20:25:42.856Z,2.17
2024-01-01T20:28:09.313Z,2.28
2024-01-01T20:30:35.717Z,2.45
2024-01-01T20:33:02.316Z,1.63
2024-01-01T20:35:29.072Z,2.33
2024-01-01T20:37:55.546Z,2.55
2024-01-01T20:40:22.479Z,2.40
2024-01-01T20:42:50.981Z,2.10
2024-01-01T20:45:17.426Z,2.17
2024-01-01T20:47:43.957Z,1.77
2024-01-01T20:50:10.502Z,2.22
2024-01-01T20:52:45.969Z,2.63
2024-01-01T20:55:15.826Z,2.08
2024-01-01T20:57:42.273Z,2.25
2024-01-01T21:00:10.229Z,1.90
2024-01-01T21:02:40.883Z,2.72
2024-01-01T21:05:07.689Z,2.00
2024-01-01T21:07:36.146Z,1.80
2024-01-01T21:10:03.190Z,2.15
2024-01-01T21:12:29.713Z,2.20
2024-01-01T21:14:56.144Z,1.63
2024-01-01T21:17:24.849Z,2.22
2024-01-01T21:19:51.487Z,2.53
2024-01-01T21:22:18.037Z,2.33
2024-01-01T21:24:45.621Z,1.90
2024-01-01T21:27:14.497Z,2.05
2024-01-01T21:29:41.284Z,1.77
2024-01-01T21:32:09.252Z,1.95
2024-01-01T21:34:36.150Z,1.63
2024-01-01T21:37:05.728Z,2.00
2024-01-01T21:39:32.254Z,1.63
2024-01-01T21:41:58.863Z,1.40
2024-01-01T21:44:25.912Z,1.75
2024-01-01T21:46:53.691Z,1.63
2024-01-01T21:49:20.275Z,1.60
2024-01-01T21:51:47.122Z,1.30
2024-01-01T21:54:14.016Z,1.30
2024-01-01T21:56:40.783Z,1.77
2024-01-01T21:59:07.336Z,1.58
2024-01-01T22:01:35.104Z,1.40
2024-01-01T22:04:02.070Z,1.88
2024-01-01T22:06:28.580Z,1.67
2024-01-01T22:08:55.210Z,1.77
2024-01-01T22:11:21.777Z,1.38
2024-01-01T22:13:49.630Z,1.30
2024-01-01T22:16:16.272Z,1.27
2024-01-01T22:18:42.800Z,2.08
2024-01-01T22:21:15.810Z,1.33
2024-01-01T22:23:42.410Z,2.00
2024-01-01T22:26:13.899Z,1.50
2024-01-01T22:28:41.100Z,1.20
2024-01-01T22:31:07.516Z,0.95
2024-01-01T22:33:34.868Z,1.35
2024-01-01T22:36:01.720Z,1.40
2024-01-01T22:38:28.143Z,1.63
2024-01-01T22:40:57.688Z,1.45
2024-01-01T22:43:24.477Z,1.50
2024-01-01T22:45:51.010Z,1.63
2024-01-01T22:48:17.699Z,1.30
2024-01-01T22:50:44.305Z,1.40
2024-01-01T22:53:11.049Z,1.40
2024-01-01T22:55:37.560Z,1.95
2024-01-01T22:58:04.194Z,1.40
2024-01-01T23:00:31.347Z,1.27
2024-01-01T23:02:57.854Z,1.20
2024-01-01T23:05:24.506Z,1.05
2024-01-01T23:07:52.612Z,1.85
2024-01-01T23:10:25.063Z,1.65
2024-01-01T23:12:52.495Z,1.50
2024-01-01T23:15:18.885Z,1.25
2024-01-01T23:17:45.614Z,1.48
2024-01-01T23:20:12.551Z,1.48
2024-01-01T23:22:39.194Z,1.63
2024-01-01T23:25:05.876Z,1.73
2024-01-01T23:27:32.366Z,1.77
2024-01-01T23:29:58.782Z,1.63
2024-01-01T23:32:25.311Z,1.73
2024-01-01T23:34:52.008Z,1.23
2024-01-01T23:37:19.047Z,1.40
2024-01-01T23:39:45.455Z,2.05
2024-01-01T23:42:11.908Z,1.60
2024-01-01T23:44:38.370Z,1.38
2024-01-01T23:47:04.934Z,1.95
2024-01-01T23:49:31.341Z,1.13
2024-01-01T23:51:57.744Z,1.83
2024-01-01T23:54:24.172Z,1.83
2024-01-01T23:56:50.586Z,1.40
2024-01-01T23:59:19.121Z,1.50
